Time;durP1;ratioP1;P1;durP2;ratioP2;P2;SDS_P1;SDS_P2;PMS_P1;PMS_P2;Temp;Humidity;BMP_temperature;BMP_pressure;BME280_temperature;BME280_humidity;BME280_pressure;Samples;Min_cycle;Max_cycle;Signal;HPM_P1;HPM_P2
2023/03/19 00:00:13;;;;;;;14.13;11.90;;;9.90;1.00;;;;;;5078334;28;20538;-82
2023/03/19 00:02:41;;;;;;;14.73;10.93;;;9.60;99.90;;;;;;5078859;28;20466;-81
2023/03/19 00:05:08;;;;;;;24.03;13.03;;;9.70;1.00;;;;;;5079391;28;20450;-81
2023/03/19 00:07:35;;;;;;;12.67;11.33;;;9.70;1.00;;;;;;5078523;28;20442;-81
2023/03/19 00:10:02;;;;;;;13.73;11.50;;;9.80;1.00;;;;;;5078946;28;20462;-82
2023/03/19 00:12:28;;;;;;;15.87;11.37;;;9.80;1.00;;;;;;5078312;28;20446;-82
2023/03/19 00:14:57;;;;;;;17.67;13.30;;;9.80;1.00;;;;;;5077645;28;20443;-82
2023/03/19 00:17:24;;;;;;;18.87;13.27;;;10.00;16.50;;;;;;5078758;28;20447;-82
2023/03/19 00:19:50;;;;;;;14.87;11.37;;;9.70;1.00;;;;;;5088307;28;20448;-82
2023/03/19 00:22:17;;;;;;;13.77;11.73;;;9.70;1.00;;;;;;5096133;28;20521;-82
2023/03/19 00:24:44;;;;;;;14.80;11.77;;;9.60;1.00;;;;;;5082914;28;20437;-83
2023/03/19 00:27:11;;;;;;;14.90;13.30;;;9.60;1.00;;;;;;5080937;28;20589;-83
2023/03/19 00:29:38;;;;;;;18.63;13.70;;;9.60;1.00;;;;;;5078792;28;20891;-83
2023/03/19 00:32:09;;;;;;;15.27;12.63;;;9.70;40.80;;;;;;5078738;28;20830;-83
2023/03/19 00:34:36;;;;;;;22.27;14.33;;;9.50;1.00;;;;;;5077769;28;20453;-81
2023/03/19 00:37:03;;;;;;;18.80;15.23;;;9.40;1.00;;;;;;5078265;28;20447;-83
2023/03/19 00:39:30;;;;;;;21.73;15.57;;;9.30;17.40;;;;;;5079189;28;20505;-82
2023/03/19 00:41:56;;;;;;;16.60;14.23;;;9.30;35.40;;;;;;5077629;28;20467;-83
2023/03/19 00:44:23;;;;;;;20.60;15.80;;;9.30;32.10;;;;;;5077219;28;20478;-82
2023/03/19 00:46:50;;;;;;;20.80;16.33;;;9.20;1.00;;;;;;5077280;28;20798;-82
2023/03/19 00:49:18;;;;;;;17.67;14.43;;;9.20;25.00;;;;;;5079001;28;20465;-81
2023/03/19 00:51:45;;;;;;;18.93;14.17;;;9.10;52.60;;;;;;5076154;28;20421;-81
2023/03/19 00:54:12;;;;;;;18.13;13.23;;;9.10;1.00;;;;;;5076982;28;20513;-81
2023/03/19 00:56:39;;;;;;;18.33;14.80;;;9.20;1.00;;;;;;5077065;28;20936;-80
2023/03/19 00:59:06;;;;;;;14.63;12.83;;;9.20;1.00;;;;;;5077024;28;20475;-81
2023/03/19 01:01:33;;;;;;;17.50;14.67;;;9.10;31.70;;;;;;5077130;28;20984;-82
2023/03/19 01:04:00;;;;;;;17.50;13.70;;;9.10;1.00;;;;;;5076748;28;20472;-82
2023/03/19 01:06:28;;;;;;;16.80;13.10;;;9.10;99.90;;;;;;5076441;28;20472;-80
2023/03/19 01:08:55;;;;;;;17.97;13.50;;;9.00;1.00;;;;;;5075899;28;20566;-81
2023/03/19 01:11:22;;;;;;;16.47;12.87;;;8.90;1.00;;;;;;5076628;28;20444;-81
2023/03/19 01:13:49;;;;;;;20.17;13.43;;;8.90;4.80;;;;;;5075978;28;20524;-80
2023/03/19 01:16:15;;;;;;;17.03;14.37;;;8.80;9.40;;;;;;5076497;28;20457;-80
2023/03/19 01:18:43;;;;;;;21.80;12.97;;;8.80;11.60;;;;;;5077170;28;20426;-82
2023/03/19 01:21:10;;;;;;;15.90;14.20;;;8.80;8.80;;;;;;5076372;28;20426;-82
2023/03/19 01:23:38;;;;;;;22.83;14.80;;;8.80;99.90;;;;;;5076724;28;20497;-82
2023/03/19 01:26:06;;;;;;;19.27;14.50;;;8.60;99.90;;;;;;5076758;28;20456;-82
2023/03/19 01:28:33;;;;;;;14.27;12.87;;;8.70;20.40;;;;;;5075859;28;20456;-83
2023/03/19 01:31:00;;;;;;;16.30;13.90;;;8.80;53.70;;;;;;5076114;28;20420;-82
2023/03/19 01:33:27;;;;;;;17.53;13.83;;;8.80;5.70;;;;;;5082378;28;20501;-81
2023/03/19 01:35:56;;;;;;;15.50;13.90;;;8.80;1.00;;;;;;5082721;28;20428;-82
2023/03/19 01:38:24;;;;;;;17.07;14.30;;;8.80;1.00;;;;;;5076905;28;20426;-82
2023/03/19 01:40:52;;;;;;;20.20;14.20;;;8.80;1.00;;;;;;5076511;28;20459;-82
2023/03/19 01:43:21;;;;;;;15.87;13.67;;;8.60;99.90;;;;;;5075866;28;20458;-82
2023/03/19 01:45:51;;;;;;;21.97;13.20;;;8.80;1.00;;;;;;5075998;28;20970;-83
2023/03/19 01:48:25;;;;;;;15.33;13.60;;;8.70;8.20;;;;;;5075846;28;20442;-82
2023/03/19 01:50:54;;;;;;;16.03;14.03;;;8.60;34.30;;;;;;5076031;28;20401;-83
2023/03/19 01:53:24;;;;;;;17.20;14.00;;;8.60;99.90;;;;;;5075527;28;20435;-83
2023/03/19 01:55:55;;;;;;;18.23;12.77;;;8.60;27.00;;;;;;5075805;28;20952;-83
2023/03/19 01:58:22;;;;;;;19.67;12.97;;;8.60;1.00;;;;;;5075132;28;20908;-83
2023/03/19 02:00:49;;;;;;;15.10;13.23;;;8.70;1.00;;;;;;5075788;28;20421;-83
2023/03/19 02:03:16;;;;;;;19.03;14.53;;;8.80;99.90;;;;;;5074984;28;20973;-82
2023/03/19 02:05:45;;;;;;;14.43;12.93;;;8.60;1.00;;;;;;5075508;28;20447;-82
2023/03/19 02:08:15;;;;;;;18.83;14.20;;;8.60;1.00;;;;;;5075640;28;20448;-82
2023/03/19 02:10:44;;;;;;;17.73;12.80;;;10.40;99.90;;;;;;5076125;28;20446;-82
2023/03/19 02:13:12;;;;;;;16.50;13.73;;;8.30;99.90;;;;;;5075670;28;20443;-82
2023/03/19 02:15:39;;;;;;;16.30;12.07;;;8.40;28.10;;;;;;5075365;28;20445;-82
2023/03/19 02:18:07;;;;;;;18.50;12.77;;;8.40;3.40;;;;;;5074956;28;20489;-82
2023/03/19 02:20:43;;;;;;;19.43;12.47;;;8.40;1.00;;;;;;5075429;28;20428;-81
2023/03/19 02:23:17;;;;;;;23.13;13.97;;;8.50;99.90;;;;;;5075193;28;20406;-82
2023/03/19 02:25:56;;;;;;;20.50;13.80;;;8.40;1.00;;;;;;5075283;28;20430;-82
2023/03/19 02:28:24;;;;;;;17.57;13.20;;;8.40;1.80;;;;;;5075113;28;20501;-81
2023/03/19 02:30:52;;;;;;;17.70;13.00;;;8.40;1.00;;;;;;5075582;28;20490;-82
2023/03/19 02:33:20;;;;;;;16.80;12.90;;;8.30;99.90;;;;;;5075720;28;20501;-82
2023/03/19 02:35:50;;;;;;;18.70;14.30;;;8.40;6.00;;;;;;5093887;28;20438;-81
2023/03/19 02:38:17;;;;;;;18.70;14.03;;;8.40;99.90;;;;;;5088474;28;20451;-83
2023/03/19 02:40:48;;;;;;;15.57;13.90;;;8.40;33.50;;;;;;5079660;28;20522;-83
2023/03/19 02:43:16;;;;;;;18.93;12.50;;;8.50;99.90;;;;;;5085031;28;20451;-82
2023/03/19 02:45:43;;;;;;;17.63;13.30;;;8.40;14.80;;;;;;5083944;22;20595;-78
2023/03/19 02:48:10;;;;;;;15.70;12.00;;;8.50;99.90;;;;;;5055467;28;20423;-78
2023/03/19 02:50:36;;;;;;;15.87;12.80;;;8.50;1.00;;;;;;5054847;28;20570;-78
2023/03/19 02:53:03;;;;;;;15.80;12.87;;;8.60;99.90;;;;;;5053201;28;20518;-78
2023/03/19 02:55:30;;;;;;;20.43;13.73;;;8.50;1.00;;;;;;5053182;28;20445;-77
2023/03/19 02:57:57;;;;;;;19.20;14.50;;;8.50;1.00;;;;;;5052744;28;20459;-78
2023/03/19 03:00:25;;;;;;;16.37;11.87;;;8.50;1.00;;;;;;5053266;28;20535;-78
2023/03/19 03:02:52;;;;;;;17.53;12.90;;;8.50;1.00;;;;;;5052821;28;20464;-78
2023/03/19 03:05:20;;;;;;;16.87;12.10;;;8.10;99.90;;;;;;5052618;28;20449;-78
2023/03/19 03:07:48;;;;;;;15.97;12.60;;;8.50;1.00;;;;;;5053343;28;20826;-78
2023/03/19 03:10:17;;;;;;;15.50;12.90;;;8.40;1.00;;;;;;5053498;28;20552;-78
2023/03/19 03:12:45;;;;;;;15.27;11.83;;;8.40;1.00;;;;;;5055184;28;20437;-77
2023/03/19 03:15:13;;;;;;;13.53;11.97;;;8.40;1.00;;;;;;5058671;28;20476;-78
2023/03/19 03:17:42;;;;;;;14.20;11.40;;;8.50;90.80;;;;;;5058499;28;20481;-77
2023/03/19 03:20:11;;;;;;;17.90;13.47;;;8.60;99.90;;;;;;5057558;28;20820;-77
2023/03/19 03:22:38;;;;;;;16.40;12.20;;;8.50;1.00;;;;;;5059412;28;20407;-78
2023/03/19 03:25:06;;;;;;;14.90;13.23;;;8.50;1.00;;;;;;5059788;28;20499;-78
2023/03/19 03:27:33;;;;;;;15.97;11.73;;;8.60;99.90;;;;;;5058666;28;20930;-77
2023/03/19 03:30:01;;;;;;;16.00;12.63;;;8.50;1.30;;;;;;5058895;28;20566;-77
2023/03/19 03:32:27;;;;;;;14.97;11.40;;;8.50;1.00;;;;;;5058672;28;20514;-77
2023/03/19 03:34:56;;;;;;;19.60;13.10;;;8.40;1.00;;;;;;5059256;28;20559;-77
2023/03/19 03:37:22;;;;;;;14.97;12.93;;;8.40;1.00;;;;;;5058762;28;20531;-77
2023/03/19 03:39:49;;;;;;;12.50;11.03;;;8.30;1.00;;;;;;5058249;28;20423;-77
2023/03/19 03:42:17;;;;;;;15.30;12.17;;;8.30;1.00;;;;;;5057522;28;20459;-77
2023/03/19 03:44:44;;;;;;;19.70;12.57;;;8.20;1.00;;;;;;5057955;28;20544;-78
2023/03/19 03:47:12;;;;;;;20.83;12.30;;;8.20;1.00;;;;;;5056739;28;20451;-77
2023/03/19 03:49:40;;;;;;;14.27;10.90;;;8.20;25.80;;;;;;5056031;28;20455;-77
2023/03/19 03:52:08;;;;;;;17.77;13.63;;;8.30;99.90;;;;;;5055967;28;20460;-78
2023/03/19 03:54:35;;;;;;;16.03;12.23;;;8.30;1.00;;;;;;5056798;28;20821;-77
2023/03/19 03:57:02;;;;;;;16.97;12.90;;;8.30;1.00;;;;;;5056634;28;20422;-77
2023/03/19 03:59:29;;;;;;;15.50;12.30;;;8.30;1.00;;;;;;5056597;28;20452;-77
2023/03/19 04:01:56;;;;;;;14.60;12.33;;;8.10;99.90;;;;;;5057159;28;20812;-77
2023/03/19 04:04:23;;;;;;;14.73;12.03;;;8.30;1.00;;;;;;5057226;28;20454;-77
2023/03/19 04:06:50;;;;;;;15.30;11.80;;;8.30;1.00;;;;;;5057589;28;20491;-77
2023/03/19 04:09:18;;;;;;;21.00;11.77;;;8.30;1.00;;;;;;5056494;28;20880;-77
2023/03/19 04:11:45;;;;;;;19.67;13.60;;;8.30;1.00;;;;;;5056386;28;20514;-77
2023/03/19 04:14:12;;;;;;;17.30;13.57;;;8.30;1.00;;;;;;5056455;28;20467;-79
2023/03/19 04:16:39;;;;;;;15.87;12.90;;;8.20;1.00;;;;;;5056091;28;20947;-77
2023/03/19 04:19:07;;;;;;;19.00;14.83;;;8.20;42.10;;;;;;5056983;28;20448;-79
2023/03/19 04:21:34;;;;;;;16.33;13.23;;;8.20;27.60;;;;;;5056936;28;20418;-77
2023/03/19 04:24:01;;;;;;;16.93;12.50;;;8.10;99.90;;;;;;5055661;28;20470;-78
2023/03/19 04:26:29;;;;;;;16.90;12.77;;;8.20;45.90;;;;;;5054730;28;20490;-77
2023/03/19 04:28:57;;;;;;;20.27;12.10;;;8.20;77.00;;;;;;5055950;28;20430;-77
2023/03/19 04:31:24;;;;;;;16.57;12.40;;;8.20;28.60;;;;;;5055807;28;21042;-77
2023/03/19 04:33:51;;;;;;;16.77;13.10;;;8.30;99.90;;;;;;5056205;28;20426;-77
2023/03/19 04:36:18;;;;;;;14.57;13.00;;;8.30;24.10;;;;;;5055524;28;20457;-78
2023/03/19 04:38:45;;;;;;;16.03;13.23;;;8.30;4.90;;;;;;5055588;28;20451;-78
2023/03/19 04:41:12;;;;;;;19.70;13.03;;;8.40;16.10;;;;;;5059433;28;20446;-75
2023/03/19 04:43:40;;;;;;;19.27;13.90;;;8.30;99.20;;;;;;5080788;28;20414;-76
2023/03/19 04:46:07;;;;;;;15.27;12.97;;;8.30;1.00;;;;;;5080715;28;20393;-76
2023/03/19 04:48:35;;;;;;;17.80;13.67;;;8.30;1.00;;;;;;5066776;28;20482;-77
2023/03/19 04:51:02;;;;;;;20.33;13.27;;;8.30;1.00;;;;;;5055663;28;20484;-77
2023/03/19 04:53:29;;;;;;;17.40;14.00;;;8.40;2.90;;;;;;5054793;28;20455;-78
2023/03/19 04:55:56;;;;;;;19.17;13.70;;;8.40;1.00;;;;;;5055281;28;20656;-78
2023/03/19 04:58:23;;;;;;;21.07;14.33;;;8.50;1.00;;;;;;5054841;28;20451;-79
2023/03/19 05:00:52;;;;;;;18.13;13.73;;;8.40;1.00;;;;;;5054827;28;20506;-79
2023/03/19 05:03:20;;;;;;;15.50;13.90;;;8.50;1.00;;;;;;5054637;28;20422;-78
2023/03/19 05:05:47;;;;;;;19.03;14.20;;;8.50;1.00;;;;;;5055051;28;20579;-77
2023/03/19 05:08:14;;;;;;;18.87;12.63;;;8.50;1.00;;;;;;5055025;28;20475;-77
2023/03/19 05:10:41;;;;;;;16.30;13.63;;;8.60;1.00;;;;;;5054697;28;20578;-78
2023/03/19 05:13:07;;;;;;;16.23;13.67;;;8.60;99.90;;;;;;5054998;28;20425;-78
2023/03/19 05:15:34;;;;;;;20.27;15.17;;;8.50;99.90;;;;;;5055472;28;20597;-77
2023/03/19 05:18:02;;;;;;;16.77;13.13;;;8.50;99.90;;;;;;5055579;28;20444;-78
2023/03/19 05:20:29;;;;;;;22.20;14.57;;;8.40;99.90;;;;;;5055121;28;20437;-79
2023/03/19 05:22:56;;;;;;;16.50;14.57;;;8.40;99.90;;;;;;5054821;28;20440;-77
2023/03/19 05:25:23;;;;;;;19.27;14.43;;;8.40;99.90;;;;;;5054213;28;20961;-77
2023/03/19 05:27:50;;;;;;;17.53;14.73;;;8.30;1.00;;;;;;5055233;28;20526;-77
2023/03/19 05:30:17;;;;;;;17.23;15.37;;;8.20;99.90;;;;;;5054512;28;20521;-78
2023/03/19 05:32:45;;;;;;;24.90;16.10;;;8.00;1.00;;;;;;5054464;28;20495;-79
2023/03/19 05:35:14;;;;;;;24.00;16.17;;;7.60;1.00;;;;;;5054553;28;20447;-78
2023/03/19 05:37:41;;;;;;;25.53;18.70;;;7.80;99.90;;;;;;5054649;28;20433;-78
2023/03/19 05:40:09;;;;;;;20.83;17.23;;;7.70;99.90;;;;;;5054333;28;20821;-78
2023/03/19 05:42:36;;;;;;;24.70;17.50;;;7.70;99.90;;;;;;5054252;28;20426;-78
2023/03/19 05:45:04;;;;;;;22.97;16.67;;;7.70;1.00;;;;;;5053883;28;20496;-78
2023/03/19 05:47:31;;;;;;;24.90;17.20;;;7.80;1.00;;;;;;5054196;28;20462;-79
2023/03/19 05:49:58;;;;;;;24.43;17.00;;;7.80;1.00;;;;;;5055237;28;20447;-79
2023/03/19 05:52:26;;;;;;;23.00;17.60;;;7.80;1.00;;;;;;5054873;28;20880;-78
2023/03/19 05:54:53;;;;;;;24.60;17.47;;;7.80;1.00;;;;;;5075058;28;20491;-77
2023/03/19 05:57:20;;;;;;;23.38;17.10;;;7.70;99.90;;;;;;5073167;28;20477;-79
2023/03/19 05:59:47;;;;;;;20.47;16.83;;;7.60;1.00;;;;;;5056552;28;20200;-79
2023/03/19 06:02:14;;;;;;;22.00;15.97;;;7.60;1.00;;;;;;5056314;28;20451;-79
2023/03/19 06:04:41;;;;;;;21.43;14.93;;;7.60;1.00;;;;;;5056315;28;20481;-79
2023/03/19 06:07:08;;;;;;;19.45;16.15;;;7.60;1.00;;;;;;5056498;28;20452;-79
2023/03/19 06:09:36;;;;;;;20.33;15.00;;;7.70;1.00;;;;;;5055327;28;20210;-79
2023/03/19 06:12:03;;;;;;;21.60;16.20;;;7.80;99.90;;;;;;5055216;28;20493;-79
2023/03/19 06:14:30;;;;;;;19.63;14.80;;;7.80;1.70;;;;;;5055781;28;20471;-79
2023/03/19 06:16:57;;;;;;;20.23;13.73;;;7.80;1.00;;;;;;5054462;28;20477;-78
2023/03/19 06:19:24;;;;;;;24.13;16.70;;;7.80;99.90;;;;;;5054245;28;20451;-79
2023/03/19 06:21:52;;;;;;;24.80;15.03;;;7.70;99.90;;;;;;5053839;28;20425;-79
2023/03/19 06:24:19;;;;;;;19.63;14.30;;;7.80;1.00;;;;;;5053720;28;20448;-78
2023/03/19 06:26:47;;;;;;;18.97;14.57;;;7.80;99.90;;;;;;5054060;28;20447;-79
2023/03/19 06:29:14;;;;;;;20.73;14.57;;;7.90;99.90;;;;;;5055159;28;20451;-78
2023/03/19 06:31:40;;;;;;;18.02;14.45;;;8.00;1.00;;;;;;5056878;28;20852;-78
2023/03/19 06:34:07;;;;;;;23.00;15.17;;;8.00;99.90;;;;;;5060954;28;20229;-78
2023/03/19 06:36:34;;;;;;;20.60;15.40;;;8.10;99.90;;;;;;5063178;28;20433;-78
2023/03/19 06:39:02;;;;;;;20.87;14.47;;;8.10;11.20;;;;;;5058779;28;20449;-79
2023/03/19 06:41:28;;;;;;;16.70;13.87;;;8.20;1.00;;;;;;5056160;28;20441;-78
2023/03/19 06:43:57;;;;;;;16.97;13.97;;;8.20;52.80;;;;;;5055892;28;21007;-79
2023/03/19 06:46:24;;;;;;;15.80;13.60;;;8.30;1.00;;;;;;5056924;28;20426;-79
2023/03/19 06:48:50;;;;;;;20.40;13.73;;;8.40;1.00;;;;;;5055530;28;20510;-80
2023/03/19 06:51:17;;;;;;;16.30;13.83;;;8.40;1.00;;;;;;5055220;28;20997;-79
2023/03/19 06:53:44;;;;;;;20.43;14.13;;;8.80;99.90;;;;;;5055750;28;20448;-79
2023/03/19 06:56:11;;;;;;;16.23;14.43;;;8.60;21.50;;;;;;5055481;28;20538;-79
2023/03/19 06:58:38;;;;;;;21.60;14.60;;;8.70;62.70;;;;;;5053805;28;20550;-79
2023/03/19 07:01:06;;;;;;;25.20;13.83;;;8.70;1.00;;;;;;5056320;28;20426;-79
2023/03/19 07:03:33;;;;;;;17.97;13.53;;;8.70;1.00;;;;;;5060251;28;20422;-78
2023/03/19 07:06:00;;;;;;;20.03;14.47;;;8.70;99.90;;;;;;5053643;28;20425;-78
2023/03/19 07:08:28;;;;;;;23.70;15.10;;;8.70;1.00;;;;;;5053299;28;20434;-78
2023/03/19 07:10:55;;;;;;;22.17;14.73;;;8.80;1.00;;;;;;5055133;28;20457;-80
2023/03/19 07:13:22;;;;;;;18.23;15.00;;;8.80;99.90;;;;;;5056560;28;20448;-79
2023/03/19 07:15:49;;;;;;;18.73;15.73;;;8.90;99.90;;;;;;5055584;28;20470;-78
2023/03/19 07:18:17;;;;;;;20.20;16.33;;;8.90;1.00;;;;;;5061792;28;20482;-79
2023/03/19 07:20:45;;;;;;;18.60;14.83;;;8.80;99.90;;;;;;5056924;28;20445;-79
2023/03/19 07:23:12;;;;;;;20.77;16.47;;;8.70;99.90;;;;;;5059541;28;20483;-79
2023/03/19 07:25:39;;;;;;;21.97;16.57;;;8.80;60.90;;;;;;5054860;28;20465;-80
2023/03/19 07:28:05;;;;;;;18.60;15.07;;;8.80;1.00;;;;;;5059303;28;20427;-79
2023/03/19 07:30:34;;;;;;;17.00;15.13;;;8.90;99.90;;;;;;5060525;28;20462;-79
2023/03/19 07:33:01;;;;;;;19.57;16.50;;;8.80;1.00;;;;;;5053792;28;20929;-77
2023/03/19 07:35:29;;;;;;;22.80;16.80;;;8.60;99.90;;;;;;5053787;28;20978;-77
2023/03/19 07:37:56;;;;;;;19.27;15.30;;;8.90;99.90;;;;;;5060157;28;20451;-78
2023/03/19 07:40:22;;;;;;;20.90;17.13;;;8.30;99.90;;;;;;5061611;28;20453;-78
2023/03/19 07:42:50;;;;;;;22.37;14.87;;;9.10;16.40;;;;;;5061306;28;20479;-78
2023/03/19 07:45:17;;;;;;;23.87;16.47;;;9.20;1.00;;;;;;5057007;28;20478;-78
2023/03/19 07:47:44;;;;;;;20.10;16.23;;;9.20;1.00;;;;;;5054665;28;20458;-79
2023/03/19 07:50:11;;;;;;;19.10;16.53;;;9.30;99.90;;;;;;5053014;28;20551;-79
2023/03/19 07:52:39;;;;;;;21.10;15.33;;;9.50;89.30;;;;;;5053757;28;20465;-78
2023/03/19 07:55:07;;;;;;;21.23;15.47;;;9.60;1.00;;;;;;5054820;28;20537;-79
2023/03/19 07:57:33;;;;;;;17.70;14.87;;;9.70;99.90;;;;;;5054287;28;20426;-78
2023/03/19 08:00:00;;;;;;;19.40;15.67;;;9.90;1.00;;;;;;5056088;28;20945;-78
2023/03/19 08:02:27;;;;;;;19.00;15.00;;;10.10;1.00;;;;;;5058901;28;20535;-78
2023/03/19 08:04:54;;;;;;;18.13;14.80;;;10.20;99.90;;;;;;5058425;28;20471;-78
2023/03/19 08:07:21;;;;;;;21.20;15.43;;;10.10;99.90;;;;;;5058218;28;20445;-79
2023/03/19 08:09:49;;;;;;;19.93;14.00;;;10.40;99.90;;;;;;5058158;28;20830;-78
2023/03/19 08:12:16;;;;;;;17.53;14.33;;;10.40;99.90;;;;;;5058563;28;20889;-80
2023/03/19 08:14:43;;;;;;;13.83;12.00;;;10.50;99.90;;;;;;5058998;28;20472;-79
2023/03/19 08:17:10;;;;;;;15.70;13.40;;;10.60;99.90;;;;;;5056395;28;20946;-78
2023/03/19 08:19:37;;;;;;;15.47;13.40;;;10.70;99.90;;;;;;5056308;28;20448;-78
2023/03/19 08:22:04;;;;;;;17.60;13.50;;;10.80;1.00;;;;;;5056180;28;20449;-79
2023/03/19 08:24:30;;;;;;;15.30;12.80;;;11.20;99.90;;;;;;5056445;28;20914;-79
2023/03/19 08:26:59;;;;;;;15.20;12.50;;;11.20;99.90;;;;;;5058588;28;20454;-79
2023/03/19 08:29:26;;;;;;;14.30;12.80;;;11.10;99.90;;;;;;5057338;28;20459;-79
2023/03/19 08:31:53;;;;;;;16.80;12.90;;;11.10;99.90;;;;;;5057418;28;20476;-80
2023/03/19 08:34:20;;;;;;;13.60;12.10;;;11.00;99.90;;;;;;5056536;28;20555;-79
2023/03/19 08:36:47;;;;;;;17.90;12.73;;;11.00;1.00;;;;;;5054706;28;20444;-78
2023/03/19 08:39:14;;;;;;;15.43;12.70;;;10.90;1.00;;;;;;5057694;28;20301;-78
2023/03/19 08:41:41;;;;;;;16.23;12.30;;;10.80;1.00;;;;;;5056344;28;20437;-79
2023/03/19 08:44:08;;;;;;;13.33;11.77;;;;;;;;;;5075785;22;20497;31
2023/03/19 08:46:36;;;;;;;17.00;13.00;;;10.60;1.00;;;;;;5057414;28;20932;-82
2023/03/19 08:49:03;;;;;;;17.10;13.10;;;10.50;99.90;;;;;;5056745;28;20918;-81
2023/03/19 08:51:30;;;;;;;17.47;13.13;;;10.20;45.30;;;;;;5057315;28;20550;-81
2023/03/19 08:53:57;;;;;;;14.20;12.70;;;10.00;99.90;;;;;;5057050;28;20456;-81
2023/03/19 08:56:24;;;;;;;18.20;15.10;;;9.90;1.00;;;;;;5058259;28;20506;-81
2023/03/19 08:58:51;;;;;;;17.57;15.70;;;9.80;99.90;;;;;;5058479;28;20489;-82
2023/03/19 09:01:18;;;;;;;19.33;14.97;;;9.70;1.00;;;;;;5057693;28;20456;-81
2023/03/19 09:03:46;;;;;;;18.17;15.47;;;9.60;1.00;;;;;;5058286;28;20538;-81
2023/03/19 09:06:14;;;;;;;19.87;15.70;;;9.60;1.00;;;;;;5057222;28;20834;-81
2023/03/19 09:08:44;;;;;;;24.93;16.00;;;9.50;1.00;;;;;;5057163;28;20543;-81
2023/03/19 09:11:13;;;;;;;22.40;17.70;;;9.40;1.00;;;;;;5067267;28;20459;-81
2023/03/19 09:13:40;;;;;;;20.67;16.53;;;9.40;1.00;;;;;;5066853;28;21004;-80
2023/03/19 09:16:08;;;;;;;21.43;16.40;;;9.30;1.00;;;;;;5065148;28;20541;-80
2023/03/19 09:18:35;;;;;;;22.50;17.43;;;9.20;1.00;;;;;;5058209;28;20456;-82
2023/03/19 09:21:04;;;;;;;19.83;15.97;;;9.30;1.00;;;;;;5063532;28;20512;-82
2023/03/19 09:23:31;;;;;;;20.07;16.57;;;9.20;16.30;;;;;;5064109;28;20445;-81
2023/03/19 09:25:58;;;;;;;19.23;17.00;;;9.30;99.90;;;;;;5063863;28;20560;-82
2023/03/19 09:28:26;;;;;;;20.10;16.77;;;9.30;99.90;;;;;;5057535;28;20452;-81
2023/03/19 09:30:53;;;;;;;18.73;16.20;;;9.30;99.90;;;;;;5057731;28;20411;-82
2023/03/19 09:33:20;;;;;;;21.80;16.53;;;9.40;99.90;;;;;;5058068;28;20898;-82
2023/03/19 09:35:51;;;;;;;19.43;15.60;;;9.40;99.90;;;;;;5057368;28;20477;-82
2023/03/19 09:38:19;;;;;;;20.83;16.10;;;9.50;99.90;;;;;;5058663;28;20439;-83
2023/03/19 09:40:48;;;;;;;20.20;17.33;;;9.50;99.90;;;;;;5076056;28;20433;-82
2023/03/19 09:43:35;;;;;;;17.63;15.60;;;9.50;99.90;;;;;;5074195;28;20440;-83
2023/03/19 09:46:06;;;;;;;22.10;18.73;;;9.60;99.90;;;;;;5063582;28;20516;-82
2023/03/19 09:48:41;;;;;;;23.97;16.40;;;9.70;99.90;;;;;;5069453;28;20436;-82
2023/03/19 09:51:18;;;;;;;18.47;15.53;;;9.70;99.90;;;;;;5061767;28;20530;-83
2023/03/19 09:53:50;;;;;;;23.57;17.30;;;9.70;99.90;;;;;;5066821;28;20751;-82
2023/03/19 09:56:18;;;;;;;22.07;15.83;;;10.30;99.90;;;;;;5063250;28;20474;-84
2023/03/19 09:58:47;;;;;;;19.30;15.47;;;9.90;99.90;;;;;;5062741;28;20511;-82
2023/03/19 10:01:25;;;;;;;17.33;15.03;;;10.00;99.90;;;;;;5062778;28;20452;-83
2023/03/19 10:04:20;;;;;;;21.33;16.90;;;9.90;99.90;;;;;;5061943;28;21007;-83
2023/03/19 10:06:47;;;;;;;21.77;16.37;;;10.00;99.90;;;;;;5059548;28;20523;-84
2023/03/19 10:09:47;;;;;;;17.07;15.23;;;10.10;99.90;;;;;;5059072;28;20445;-84
2023/03/19 10:12:30;;;;;;;18.00;15.80;;;10.20;99.90;;;;;;5038975;28;20508;-83
2023/03/19 10:15:25;;;;;;;16.87;15.07;;;10.20;99.90;;;;;;5057440;28;20542;-83
2023/03/19 10:18:00;;;;;;;18.10;15.53;;;10.90;99.90;;;;;;5057614;28;20421;-84
2023/03/19 10:20:46;;;;;;;15.93;12.77;;;10.60;99.90;;;;;;5057852;28;20498;-82
2023/03/19 10:23:42;;;;;;;18.00;14.00;;;10.50;99.90;;;;;;5056505;28;20982;-83
2023/03/19 10:26:16;;;;;;;18.60;15.70;;;10.60;99.90;;;;;;5054593;28;20511;-83
2023/03/19 10:28:55;;;;;;;18.50;14.20;;;10.60;99.90;;;;;;5061511;28;20524;-82
2023/03/19 10:31:26;;;;;;;15.17;12.13;;;10.50;84.20;;;;;;5069690;28;20444;-84
2023/03/19 10:34:11;;;;;;;20.17;14.43;;;10.30;29.00;;;;;;5060923;28;20825;-84
2023/03/19 10:36:38;;;;;;;17.93;14.83;;;10.40;56.80;;;;;;5056494;28;20826;-83
2023/03/19 10:39:06;;;;;;;16.97;14.90;;;10.40;14.30;;;;;;5055671;28;20434;-82
2023/03/19 10:41:47;;;;;;;17.90;14.53;;;10.30;14.70;;;;;;5055669;28;20457;-82
2023/03/19 10:44:25;;;;;;;16.47;14.70;;;10.60;99.90;;;;;;5054856;28;20897;-81
2023/03/19 10:46:51;;;;;;;15.47;12.40;;;10.60;33.30;;;;;;5056158;28;20460;-83
2023/03/19 10:49:19;;;;;;;14.47;11.83;;;;;;;;;;5056062;28;20424;-82
2023/03/19 10:51:46;;;;;;;13.97;12.13;;;10.80;1.00;;;;;;5056166;28;20494;-82
2023/03/19 10:54:21;;;;;;;16.37;13.77;;;10.60;1.00;;;;;;5056265;28;20449;-84
2023/03/19 10:56:50;;;;;;;13.90;12.30;;;10.80;1.00;;;;;;5056621;28;20447;-85
2023/03/19 10:59:25;;;;;;;15.63;11.47;;;10.80;1.00;;;;;;5056486;28;20448;-83
2023/03/19 11:01:58;;;;;;;12.63;11.30;;;10.90;1.00;;;;;;5060610;28;20423;-83
2023/03/19 11:04:26;;;;;;;15.43;12.93;;;11.00;1.00;;;;;;5063988;28;20464;-82
2023/03/19 11:06:55;;;;;;;15.00;13.00;;;11.20;1.00;;;;;;5058442;28;20427;-82
2023/03/19 11:09:28;;;;;;;12.90;11.70;;;11.50;1.00;;;;;;5057602;28;20418;-81
2023/03/19 11:11:59;;;;;;;13.40;11.90;;;11.70;1.00;;;;;;5056576;28;20985;-83
2023/03/19 11:14:34;;;;;;;18.13;12.30;;;11.60;1.00;;;;;;5057027;28;20621;-83
2023/03/19 11:17:06;;;;;;;14.67;12.27;;;11.70;99.90;;;;;;5057006;28;20492;-83
2023/03/19 11:19:39;;;;;;;15.17;12.47;;;11.90;99.90;;;;;;5058959;28;20485;-83
2023/03/19 11:22:16;;;;;;;13.60;12.30;;;11.90;99.90;;;;;;5062676;28;20449;-80
2023/03/19 11:24:52;;;;;;;11.77;10.60;;;12.10;99.90;;;;;;5066350;28;20462;-81
2023/03/19 11:27:28;;;;;;;12.23;10.53;;;12.10;99.90;;;;;;5058583;28;20461;-82
2023/03/19 11:29:57;;;;;;;13.07;10.70;;;12.10;99.90;;;;;;5056442;28;20432;-83
2023/03/19 11:32:58;;;;;;;12.67;11.30;;;12.20;99.90;;;;;;5056621;28;20491;-82
2023/03/19 11:35:29;;;;;;;11.27;10.17;;;12.20;99.90;;;;;;5017252;28;20562;-83
2023/03/19 11:37:59;;;;;;;12.43;11.13;;;12.10;99.90;;;;;;5060905;28;20455;-82
2023/03/19 11:40:38;;;;;;;12.30;11.10;;;12.20;99.90;;;;;;5060946;28;20443;-83
2023/03/19 11:43:31;;;;;;;12.67;11.30;;;12.30;99.90;;;;;;5062040;28;20452;-83
2023/03/19 11:46:06;;;;;;;14.83;10.80;;;12.40;99.90;;;;;;5045471;28;20572;-82
2023/03/19 11:48:57;;;;;;;12.73;11.53;;;12.40;99.90;;;;;;5060571;28;20467;-83
2023/03/19 11:51:30;;;;;;;11.40;10.37;;;12.60;99.90;;;;;;5059640;28;20815;-82
2023/03/19 11:54:04;;;;;;;11.30;10.00;;;13.20;1.00;;;;;;5060329;28;20969;-83
2023/03/19 11:56:40;;;;;;;13.10;11.60;;;13.00;1.00;;;;;;5060215;28;20519;-83
2023/03/19 11:59:26;;;;;;;11.37;9.93;;;13.10;99.90;;;;;;5069931;28;20440;-81
2023/03/19 12:02:12;;;;;;;12.83;10.80;;;13.10;93.30;;;;;;5077083;28;20424;-82
2023/03/19 12:05:09;;;;;;;11.63;10.37;;;12.90;1.00;;;;;;5075946;28;20510;-83
2023/03/19 12:07:45;;;;;;;11.57;9.73;;;13.00;18.40;;;;;;5065419;28;20428;-83
2023/03/19 12:10:34;;;;;;;12.23;10.77;;;13.10;1.00;;;;;;5060945;28;20494;-82
2023/03/19 12:13:16;;;;;;;16.27;11.50;;;13.10;99.90;;;;;;5060007;28;20486;-84
2023/03/19 12:15:54;;;;;;;12.77;11.30;;;13.50;1.00;;;;;;5058871;28;20825;-82
2023/03/19 12:18:43;;;;;;;12.37;11.17;;;13.50;1.00;;;;;;5058539;28;20446;-82
2023/03/19 12:21:14;;;;;;;10.43;9.43;;;13.50;99.90;;;;;;5059106;28;20439;-82
2023/03/19 12:23:58;;;;;;;12.80;10.47;;;13.60;50.30;;;;;;5057874;28;20438;-82
2023/03/19 12:26:32;;;;;;;11.17;10.03;;;13.50;99.90;;;;;;5058242;28;20431;-83
2023/03/19 12:29:07;;;;;;;11.63;10.10;;;13.80;87.00;;;;;;5060292;28;20440;-82
2023/03/19 12:31:46;;;;;;;11.20;10.03;;;13.80;99.90;;;;;;5060061;28;20433;-81
2023/03/19 12:34:23;;;;;;;11.73;10.47;;;13.40;99.90;;;;;;5060497;28;20460;-82
2023/03/19 12:36:54;;;;;;;11.47;10.27;;;13.70;99.90;;;;;;5060720;28;20467;-82
2023/03/19 12:39:28;;;;;;;14.73;12.47;;;13.70;1.00;;;;;;5063218;28;20867;-82
2023/03/19 12:41:58;;;;;;;10.93;9.93;;;13.80;1.00;;;;;;5063639;28;20434;-82
2023/03/19 12:44:29;;;;;;;10.97;9.40;;;14.10;99.90;;;;;;5064830;28;20468;-81
2023/03/19 12:47:02;;;;;;;12.10;10.30;;;14.30;1.00;;;;;;5073646;28;20457;-80
2023/03/19 12:49:34;;;;;;;14.20;10.73;;;14.20;1.00;;;;;;5078247;28;20449;-82
2023/03/19 12:52:08;;;;;;;12.33;11.13;;;14.20;99.90;;;;;;5062861;28;20505;-82